Time;durP1;ratioP1;P1;durP2;ratioP2;P2;SDS_P1;SDS_P2;PMS_P1;PMS_P2;Temp;Humidity;BMP_temperature;BMP_pressure;BME280_temperature;BME280_humidity;BME280_pressure;Samples;Min_cycle;Max_cycle;Signal;HPM_P1;HPM_P2
2022/10/26 00:01:41;;;;;;;26.53;12.20;;;8.40;99.90;;;;;;4944516;23;20059;-85
2022/10/26 00:04:06;;;;;;;23.93;11.00;;;8.30;99.90;;;;;;4937556;29;20122;-85
2022/10/26 00:06:38;;;;;;;22.13;11.00;;;8.30;99.90;;;;;;4953729;29;20079;-85
2022/10/26 00:14:30;;;;;;;22.63;10.50;;;8.20;99.90;;;;;;5758902;23;20054;-87
2022/10/26 00:16:56;;;;;;;24.33;10.90;;;8.00;99.90;;;;;;4961477;29;20055;-85
2022/10/26 00:19:53;;;;;;;21.17;11.07;;;8.40;99.90;;;;;;4936622;29;20055;-85
2022/10/26 00:22:19;;;;;;;24.87;11.60;;;8.20;99.90;;;;;;4936964;29;20043;-85
2022/10/26 00:27:17;;;;;;;28.13;11.70;;;8.10;99.90;;;;;;4957193;23;20188;-85
2022/10/26 00:29:43;;;;;;;25.63;11.87;;;8.10;99.90;;;;;;5337477;23;20384;-84
2022/10/26 00:32:14;;;;;;;24.47;12.47;;;9.10;99.90;;;;;;4935817;29;20051;-85
2022/10/26 00:34:40;;;;;;;27.37;13.50;;;8.80;99.90;;;;;;4954036;29;20047;-85
2022/10/26 00:37:06;;;;;;;29.60;13.63;;;8.50;99.90;;;;;;4937059;29;20043;-85
2022/10/26 00:40:08;;;;;;;31.80;13.50;;;8.10;99.90;;;;;;4954359;29;20447;-85
2022/10/26 00:42:36;;;;;;;31.80;14.87;;;7.60;99.90;;;;;;4936652;29;20069;-85
2022/10/26 00:45:19;;;;;;;26.27;12.70;;;8.00;99.90;;;;;;4954373;29;20047;-85
2022/10/26 00:48:02;;;;;;;24.77;12.47;;;8.20;99.90;;;;;;4954030;29;20069;-85
2022/10/26 00:50:35;;;;;;;27.57;12.67;;;8.80;99.90;;;;;;4939255;29;20043;-84
2022/10/26 00:53:26;;;;;;;28.03;12.80;;;8.10;99.90;;;;;;5124920;23;20048;-85
2022/10/26 01:04:57;;;;;;;27.13;13.27;;;7.90;99.90;;;;;;4914498;29;20355;-84
2022/10/26 01:07:27;;;;;;;30.33;14.07;;;8.00;99.90;;;;;;4897110;29;20060;-84
2022/10/26 01:10:00;;;;;;;25.43;12.80;;;8.50;99.90;;;;;;4914950;29;20614;-84
2022/10/26 01:23:04;;;;;;;23.37;11.73;;;7.60;99.90;;;;;;5163385;23;20055;-84
2022/10/26 01:26:06;;;;;;;25.07;11.30;;;8.40;99.90;;;;;;4960042;23;20047;-84
2022/10/26 01:29:02;;;;;;;23.03;11.60;;;7.50;99.90;;;;;;4964165;29;20055;-84
2022/10/26 01:34:09;;;;;;;42.67;13.77;;;7.40;99.90;;;;;;5187757;23;20059;-83
2022/10/26 01:36:55;;;;;;;29.57;13.53;;;7.40;99.90;;;;;;4935909;28;20055;-84
2022/10/26 01:39:24;;;;;;;25.40;12.40;;;8.40;99.90;;;;;;4939784;29;20121;-84
2022/10/26 01:41:52;;;;;;;28.80;12.97;;;7.40;99.90;;;;;;4939656;29;20047;-84
2022/10/26 01:44:44;;;;;;;34.47;14.60;;;7.40;99.90;;;;;;4938841;29;20082;-84
2022/10/26 01:47:13;;;;;;;28.97;13.33;;;7.50;99.90;;;;;;4939709;29;20043;-84
2022/10/26 01:49:52;;;;;;;29.40;14.73;;;7.90;99.90;;;;;;4957305;29;20050;-84
2022/10/26 01:52:19;;;;;;;35.23;15.17;;;7.50;99.90;;;;;;4938839;29;20054;-85
2022/10/26 01:54:44;;;;;;;29.53;14.57;;;7.50;99.90;;;;;;4956916;29;20114;-84
2022/10/26 01:57:15;;;;;;;30.60;13.07;;;7.50;99.90;;;;;;4939223;29;20054;-84
2022/10/26 02:00:00;;;;;;;32.50;15.33;;;7.50;99.90;;;;;;4938740;29;20074;-84
2022/10/26 02:02:44;;;;;;;33.27;16.20;;;7.50;99.90;;;;;;4958577;29;20047;-84
2022/10/26 02:05:32;;;;;;;31.27;15.80;;;7.50;99.90;;;;;;4942892;29;20447;-84
2022/10/26 02:08:25;;;;;;;32.40;16.27;;;7.50;99.90;;;;;;5011358;23;20495;-84
2022/10/26 02:11:25;;;;;;;32.17;15.33;;;7.50;99.90;;;;;;4956513;29;20122;-84
2022/10/26 02:14:02;;;;;;;29.63;14.90;;;7.50;99.90;;;;;;4955510;29;20090;-84
2022/10/26 02:16:36;;;;;;;39.53;18.33;;;7.40;99.90;;;;;;4939103;29;20404;-84
2022/10/26 02:19:30;;;;;;;45.60;18.77;;;8.20;99.90;;;;;;4938854;29;20575;-85
2022/10/26 02:22:21;;;;;;;49.50;21.25;;;7.50;99.90;;;;;;4939043;29;20047;-85
2022/10/26 02:25:15;;;;;;;46.50;21.27;;;7.60;99.90;;;;;;4953956;23;20121;-85
2022/10/26 02:27:52;;;;;;;47.92;21.67;;;7.70;99.90;;;;;;4955640;29;20053;-84
2022/10/26 02:30:35;;;;;;;52.80;23.17;;;7.60;99.90;;;;;;4938704;29;20035;-84
2022/10/26 02:33:27;;;;;;;56.33;23.10;;;7.80;99.90;;;;;;4955055;29;20047;-84
2022/10/26 02:36:00;;;;;;;53.57;22.33;;;7.80;99.90;;;;;;4956651;29;20106;-85
2022/10/26 02:38:31;;;;;;;48.60;22.37;;;7.60;99.90;;;;;;4959351;29;20415;-84
2022/10/26 02:40:59;;;;;;;51.40;22.37;;;8.00;99.90;;;;;;4941442;29;20047;-84
2022/10/26 02:43:26;;;;;;;59.97;25.13;;;7.80;99.90;;;;;;4939168;29;20050;-84
2022/10/26 02:46:28;;;;;;;55.50;22.80;;;8.70;99.90;;;;;;4938766;29;20119;-84
2022/10/26 02:48:55;;;;;;;58.03;24.10;;;7.90;99.90;;;;;;4898482;29;20067;-85
2022/10/26 02:51:29;;;;;;;50.23;22.87;;;7.80;99.90;;;;;;4955483;29;20059;-85
2022/10/26 02:54:18;;;;;;;48.50;23.40;;;7.90;99.90;;;;;;4955220;29;20231;-85
2022/10/26 02:56:55;;;;;;;49.27;22.87;;;7.80;99.90;;;;;;4938300;29;20238;-85
2022/10/26 02:59:27;;;;;;;54.73;23.60;;;7.80;99.90;;;;;;4955805;29;20061;-85
2022/10/26 03:01:59;;;;;;;56.43;23.67;;;7.80;99.90;;;;;;4937664;29;20126;-84
2022/10/26 03:04:34;;;;;;;50.90;22.33;;;8.30;99.90;;;;;;4956260;29;20055;-84
2022/10/26 03:07:19;;;;;;;57.53;23.47;;;7.80;99.90;;;;;;4938482;29;20479;-84
2022/10/26 03:10:03;;;;;;;59.60;24.38;;;7.80;99.90;;;;;;4954739;29;20055;-84
2022/10/26 03:12:29;;;;;;;;;;;7.90;99.90;;;;;;4937895;29;20043;-84
2022/10/26 03:14:54;;;;;;;53.93;23.03;;;7.90;99.90;;;;;;4942944;29;19922;-85
2022/10/26 03:17:20;;;;;;;56.80;24.43;;;7.90;99.90;;;;;;4939244;29;20469;-85
2022/10/26 03:19:48;;;;;;;64.23;24.80;;;8.00;99.90;;;;;;4938515;29;20051;-84
2022/10/26 03:22:14;;;;;;;59.87;24.97;;;8.00;99.90;;;;;;4937393;29;20080;-85
2022/10/26 03:29:05;;;;;;;59.43;23.13;;;8.10;99.90;;;;;;4955349;29;20069;-85
2022/10/26 03:31:53;;;;;;;56.53;23.97;;;8.10;99.90;;;;;;4955378;29;20065;-85
2022/10/26 03:34:19;;;;;;;53.20;23.47;;;9.10;99.90;;;;;;4954680;29;20110;-85
2022/10/26 03:42:24;;;;;;;58.27;23.47;;;8.00;99.90;;;;;;5373848;23;20062;-85
2022/10/26 03:51:02;;;;;;;54.80;23.03;;;8.10;99.90;;;;;;4963693;23;20058;-85
2022/10/26 03:53:28;;;;;;;58.50;23.33;;;8.10;99.90;;;;;;4937656;29;20051;-85
2022/10/26 03:55:56;;;;;;;56.30;22.13;;;8.10;99.90;;;;;;4954634;29;20094;-85
2022/10/26 03:58:22;;;;;;;54.37;21.63;;;8.30;99.90;;;;;;5341786;23;20555;-85
2022/10/26 04:00:48;;;;;;;56.23;22.13;;;8.70;99.90;;;;;;4936233;29;20134;-86
2022/10/26 04:03:15;;;;;;;54.13;21.10;;;8.20;99.90;;;;;;4934595;29;20134;-86
2022/10/26 04:05:40;;;;;;;47.63;21.23;;;8.20;99.90;;;;;;4935757;29;20050;-86
2022/10/26 04:08:07;;;;;;;47.63;21.33;;;8.20;99.90;;;;;;4937225;29;20059;-86
2022/10/26 04:10:32;;;;;;;47.90;20.42;;;8.20;99.90;;;;;;4954931;29;20043;-85
2022/10/26 04:13:00;;;;;;;46.00;20.03;;;8.20;99.90;;;;;;4954025;29;20368;-86
2022/10/26 04:15:26;;;;;;;50.80;21.27;;;8.20;99.90;;;;;;4937370;29;20061;-86
2022/10/26 04:18:00;;;;;;;52.07;20.80;;;8.20;99.90;;;;;;4937442;29;20126;-86
2022/10/26 04:20:28;;;;;;;45.60;19.50;;;8.20;99.90;;;;;;4936256;29;20058;-86
2022/10/26 04:22:58;;;;;;;44.10;19.73;;;8.20;99.90;;;;;;4954899;29;20039;-86
2022/10/26 04:25:24;;;;;;;47.73;20.07;;;8.60;99.90;;;;;;4936461;29;20039;-85
2022/10/26 04:27:56;;;;;;;43.00;18.87;;;8.20;99.90;;;;;;4965998;23;20121;-85
2022/10/26 04:30:29;;;;;;;42.97;18.90;;;8.10;99.90;;;;;;4954875;29;20074;-86
2022/10/26 04:33:10;;;;;;;41.87;19.53;;;9.00;99.90;;;;;;4936549;29;20094;-85
2022/10/26 04:35:59;;;;;;;40.70;19.60;;;9.40;99.90;;;;;;4954533;29;20294;-85
2022/10/26 04:38:31;;;;;;;39.17;17.83;;;9.60;99.90;;;;;;4954610;29;20047;-84
2022/10/26 04:41:09;;;;;;;35.63;17.47;;;9.20;99.90;;;;;;4953625;29;20057;-85
2022/10/26 04:43:34;;;;;;;34.27;16.87;;;8.00;99.90;;;;;;4954465;29;20118;-85
2022/10/26 04:46:20;;;;;;;34.53;17.90;;;8.20;99.90;;;;;;4937531;29;20101;-85
2022/10/26 04:49:01;;;;;;;35.27;14.70;;;8.40;99.90;;;;;;4953944;29;20384;-85
2022/10/26 04:51:30;;;;;;;31.27;15.63;;;7.20;99.90;;;;;;4953702;29;20058;-86
2022/10/26 04:54:02;;;;;;;34.57;15.77;;;8.00;99.90;;;;;;4953761;29;20047;-87
2022/10/26 04:56:40;;;;;;;29.15;14.93;;;8.50;99.90;;;;;;4954269;29;20082;-86
2022/10/26 04:59:18;;;;;;;32.20;15.53;;;8.30;99.90;;;;;;4954060;29;20058;-86
2022/10/26 05:02:11;;;;;;;30.13;14.80;;;8.70;99.90;;;;;;4954266;29;20048;-86
2022/10/26 05:04:47;;;;;;;28.98;14.40;;;8.70;99.90;;;;;;4940460;29;20051;-86
2022/10/26 05:07:13;;;;;;;30.48;14.95;;;8.30;99.90;;;;;;4936976;29;20102;-86
2022/10/26 05:09:38;;;;;;;32.60;14.60;;;9.00;99.90;;;;;;4936750;29;20047;-86
2022/10/26 05:12:04;;;;;;;34.70;14.57;;;9.50;99.90;;;;;;4954665;28;20101;-86
2022/10/26 05:14:46;;;;;;;32.78;14.48;;;8.90;99.90;;;;;;4940218;29;20047;-86
2022/10/26 05:17:27;;;;;;;32.67;14.02;;;10.00;99.90;;;;;;4957348;29;20504;-86
2022/10/26 05:20:04;;;;;;;28.25;13.35;;;10.10;99.90;;;;;;4940326;29;20134;-86
2022/10/26 05:22:52;;;;;;;29.80;13.00;;;9.50;99.90;;;;;;4956530;29;20047;-86
2022/10/26 05:25:36;;;;;;;31.40;12.77;;;9.00;99.90;;;;;;4957136;29;20047;-86
2022/10/26 05:28:26;;;;;;;26.85;12.63;;;10.60;99.90;;;;;;4939582;29;20063;-86
2022/10/26 05:31:17;;;;;;;29.13;13.40;;;9.10;99.90;;;;;;4956722;29;20050;-86
2022/10/26 05:33:55;;;;;;;28.15;11.50;;;9.10;99.90;;;;;;4940123;29;20051;-86
2022/10/26 05:36:29;;;;;;;26.30;12.63;;;10.30;99.90;;;;;;4956602;29;20181;-86
2022/10/26 05:39:13;;;;;;;25.70;12.27;;;9.40;99.90;;;;;;4961507;29;20057;-85
2022/10/26 05:41:57;;;;;;;28.73;12.10;;;8.70;99.90;;;;;;4957874;29;20099;-86
2022/10/26 05:45:00;;;;;;;26.92;12.00;;;10.60;99.90;;;;;;4939442;29;20047;-86
2022/10/26 05:50:03;;;;;;;;;;;9.10;99.90;;;;;;4935682;29;20059;-86
2022/10/26 05:52:28;;;;;;;27.05;12.07;;;9.10;99.90;;;;;;4920525;29;20363;-86
2022/10/26 05:54:54;;;;;;;29.35;12.55;;;9.10;99.90;;;;;;4937797;29;20078;-86
2022/10/26 05:57:20;;;;;;;28.48;12.95;;;9.10;99.90;;;;;;4919467;29;20138;-86
2022/10/26 05:59:48;;;;;;;23.98;11.23;;;9.10;99.90;;;;;;4937522;29;20444;-86
2022/10/26 06:02:41;;;;;;;27.40;11.68;;;9.10;99.90;;;;;;4920500;29;20155;-86
2022/10/26 06:09:00;;;;;;;26.08;11.50;;;9.10;99.90;;;;;;4937553;29;20129;-86
2022/10/26 06:11:41;;;;;;;22.30;10.40;;;9.10;99.90;;;;;;4919328;29;20090;-86
2022/10/26 06:21:57;;;;;;;24.23;10.50;;;8.70;99.90;;;;;;4919783;29;20408;-86
2022/10/26 06:30:46;;;;;;;21.20;9.85;;;9.40;99.90;;;;;;4956082;29;20050;-85
2022/10/26 06:33:13;;;;;;;22.23;9.82;;;10.20;99.90;;;;;;5560173;23;20047;-86
2022/10/26 06:38:17;;;;;;;25.55;9.88;;;9.30;99.90;;;;;;4994629;23;20070;-87
2022/10/26 06:46:36;;;;;;;20.85;9.73;;;9.40;99.90;;;;;;4960234;23;20578;-85
2022/10/26 06:49:46;;;;;;;19.40;9.45;;;9.50;99.90;;;;;;4936458;29;20047;-86
2022/10/26 06:54:54;;;;;;;;;;;9.50;99.90;;;;;;4966470;23;20083;-86
2022/10/26 06:58:10;;;;;;;24.73;9.43;;;9.60;99.90;;;;;;4955733;29;19937;-86
2022/10/26 07:00:38;;;;;;;19.25;9.00;;;9.60;99.90;;;;;;4937490;29;20137;-87
2022/10/26 07:03:28;;;;;;;20.88;9.30;;;9.30;99.90;;;;;;4937684;29;20081;-85
2022/10/26 07:06:46;;;;;;;20.70;9.15;;;9.60;99.90;;;;;;4945784;29;20044;-86
2022/10/26 07:09:14;;;;;;;19.45;9.15;;;9.00;99.90;;;;;;4944387;29;20051;-85
2022/10/26 07:11:40;;;;;;;20.88;9.90;;;10.70;99.90;;;;;;4947903;29;20051;-86
2022/10/26 07:14:12;;;;;;;20.05;8.45;;;11.00;99.90;;;;;;4936536;29;20054;-86
2022/10/26 07:16:37;;;;;;;19.20;9.75;;;9.70;99.90;;;;;;4932028;29;20060;-87
2022/10/26 07:19:15;;;;;;;19.40;9.43;;;10.40;99.90;;;;;;4938256;29;20043;-86
2022/10/26 07:22:00;;;;;;;20.58;8.90;;;11.30;99.90;;;;;;4941414;28;20049;-86
2022/10/26 07:24:27;;;;;;;17.67;9.18;;;9.70;99.90;;;;;;4957159;28;20043;-85
2022/10/26 07:30:21;;;;;;;17.40;8.55;;;9.80;99.90;;;;;;4892506;29;20421;-85
2022/10/26 07:33:20;;;;;;;22.00;8.70;;;9.80;99.90;;;;;;4862142;29;20045;-85
2022/10/26 07:35:54;;;;;;;17.33;8.60;;;9.60;99.90;;;;;;4875572;29;20140;-85
2022/10/26 07:38:25;;;;;;;17.27;8.70;;;10.50;99.90;;;;;;4865414;29;20056;-85
2022/10/26 07:40:53;;;;;;;16.85;8.80;;;9.90;99.90;;;;;;4861733;29;20144;-85
2022/10/26 07:43:19;;;;;;;16.02;8.05;;;10.40;99.90;;;;;;4876327;29;20177;-85
2022/10/26 07:45:59;;;;;;;18.50;8.07;;;10.20;99.90;;;;;;4876919;29;20109;-85
2022/10/26 07:48:25;;;;;;;16.92;7.93;;;10.10;99.90;;;;;;5264910;23;20108;-85
2022/10/26 07:50:51;;;;;;;16.00;8.25;;;10.30;99.90;;;;;;4935576;29;20130;-85
2022/10/26 07:53:20;;;;;;;17.65;7.75;;;10.40;99.90;;;;;;4937207;29;20063;-86
2022/10/26 07:55:58;;;;;;;15.65;7.45;;;11.30;99.90;;;;;;4937765;29;20391;-85
2022/10/26 07:58:37;;;;;;;17.50;7.93;;;11.00;99.90;;;;;;4936469;29;20097;-86
2022/10/26 08:01:12;;;;;;;19.13;6.87;;;10.40;99.90;;;;;;4954471;29;20105;-84
2022/10/26 08:06:08;;;;;;;14.38;7.22;;;10.80;99.90;;;;;;4958957;23;20059;-83
2022/10/26 08:08:34;;;;;;;13.95;6.53;;;10.80;99.90;;;;;;4954849;29;20062;-84
2022/10/26 08:11:16;;;;;;;15.73;6.63;;;11.00;99.90;;;;;;4936526;29;20043;-86
2022/10/26 08:14:00;;;;;;;15.07;6.35;;;11.10;99.90;;;;;;4954698;29;20553;-84
2022/10/26 08:20:07;;;;;;;15.23;6.07;;;11.40;99.90;;;;;;5199840;23;20546;-83
2022/10/26 08:22:32;;;;;;;13.57;5.70;;;11.40;99.90;;;;;;4937033;29;20138;-83
2022/10/26 08:24:58;;;;;;;14.20;5.90;;;11.40;99.90;;;;;;4936559;29;20130;-83
2022/10/26 08:27:26;;;;;;;13.98;5.72;;;12.40;99.90;;;;;;4936971;29;20491;-83
2022/10/26 08:30:36;;;;;;;11.98;5.82;;;11.50;99.90;;;;;;4937416;29;20071;-82
2022/10/26 08:36:32;;;;;;;15.75;5.40;;;11.50;99.90;;;;;;4953845;29;20078;-84
2022/10/26 08:39:29;;;;;;;10.93;5.30;;;11.50;99.90;;;;;;4957190;29;20185;-86
2022/10/26 08:45:27;;;;;;;12.18;5.75;;;11.70;99.90;;;;;;5389373;23;20129;-84
2022/10/26 08:48:01;;;;;;;12.80;5.63;;;12.60;99.90;;;;;;4938659;29;20055;-84
2022/10/26 08:50:31;;;;;;;13.65;5.07;;;13.40;99.90;;;;;;4962502;23;20055;-84
2022/10/26 09:00:22;;;;;;;11.00;4.95;;;12.80;99.90;;;;;;4998353;23;20063;-84
2022/10/26 09:02:52;;;;;;;12.77;4.90;;;12.90;99.90;;;;;;4940523;29;20078;-85
2022/10/26 09:05:43;;;;;;;11.55;4.82;;;13.00;99.90;;;;;;4952286;28;20047;-84
2022/10/26 09:08:22;;;;;;;13.10;5.28;;;13.10;99.90;;;;;;4954452;28;20050;-84
2022/10/26 09:10:48;;;;;;;16.23;5.10;;;13.60;99.90;;;;;;4944333;28;20099;-84
2022/10/26 09:13:37;;;;;;;11.70;5.05;;;13.20;99.90;;;;;;4955130;28;20558;-84
2022/10/26 09:16:53;;;;;;;11.60;4.80;;;13.30;99.90;;;;;;4939273;29;20055;-85
2022/10/26 09:20:06;;;;;;;12.10;4.60;;;13.30;99.90;;;;;;4879396;29;20061;-84
2022/10/26 09:23:12;;;;;;;11.05;4.93;;;13.40;99.90;;;;;;4893176;29;20049;-85
2022/10/26 09:25:59;;;;;;;11.57;4.72;;;13.30;99.90;;;;;;4938348;29;20051;-84
2022/10/26 09:28:43;;;;;;;12.43;4.90;;;14.60;99.90;;;;;;4920458;29;20047;-84
2022/10/26 09:31:25;;;;;;;11.55;4.30;;;14.40;99.90;;;;;;4925018;29;20112;-85
2022/10/26 09:34:18;;;;;;;11.40;4.93;;;15.10;99.90;;;;;;4957688;29;20062;-84
2022/10/26 09:39:47;;;;;;;11.32;4.68;;;14.10;99.90;;;;;;4941230;23;20059;-84
2022/10/26 09:42:20;;;;;;;9.63;4.32;;;14.20;99.90;;;;;;4936740;29;20066;-84
2022/10/26 09:45:15;;;;;;;10.80;4.32;;;14.30;99.90;;;;;;4920815;29;20048;-84
2022/10/26 09:54:31;;;;;;;12.47;4.27;;;14.70;99.90;;;;;;6033644;23;20029;-84
2022/10/26 09:57:07;;;;;;;12.35;4.75;;;16.20;99.90;;;;;;4938635;29;20047;-85
2022/10/26 09:59:51;;;;;;;10.93;4.60;;;15.00;99.90;;;;;;4938333;29;20106;-84
2022/10/26 10:02:51;;;;;;;;;;;15.20;99.90;;;;;;4939929;29;20138;-84
2022/10/26 10:05:24;;;;;;;10.68;3.95;;;15.40;99.90;;;;;;4955976;29;20010;-84
2022/10/26 10:08:30;;;;;;;11.35;4.22;;;15.80;99.90;;;;;;4939372;29;20077;-84
2022/10/26 10:11:14;;;;;;;9.95;3.90;;;16.00;99.90;;;;;;4956183;29;20058;-84
2022/10/26 10:13:43;;;;;;;11.10;3.75;;;17.50;99.90;;;;;;4956339;29;20399;-84
2022/10/26 10:16:20;;;;;;;10.23;3.75;;;16.70;99.90;;;;;;4956379;29;20050;-85
2022/10/26 10:19:24;;;;;;;11.80;3.80;;;18.00;99.90;;;;;;4938535;29;20101;-85
2022/10/26 10:22:07;;;;;;;;;;;17.80;99.90;;;;;;4859976;29;20057;-85
2022/10/26 10:24:39;;;;;;;10.45;3.30;;;17.20;99.90;;;;;;4950208;28;20353;-85
2022/10/26 10:27:32;;;;;;;11.20;3.50;;;17.50;99.90;;;;;;4974916;23;20064;-85
2022/10/26 10:30:21;;;;;;;8.85;3.55;;;17.60;99.90;;;;;;4926502;29;20044;-87
2022/10/26 10:33:10;;;;;;;10.00;3.70;;;17.00;99.90;;;;;;4938675;29;20044;-86
2022/10/26 10:35:38;;;;;;;9.13;3.55;;;17.70;99.90;;;;;;4943348;23;20072;-87
2022/10/26 10:38:05;;;;;;;10.30;3.80;;;17.70;99.90;;;;;;4940739;29;20052;-89
2022/10/26 10:40:34;;;;;;;10.77;3.40;;;17.90;99.90;;;;;;4937812;29;20107;-92
2022/10/26 10:43:14;;;;;;;10.43;3.15;;;17.80;99.90;;;;;;4948378;23;20061;-91
2022/10/26 10:49:24;;;;;;;10.82;3.72;;;17.80;99.90;;;;;;4897077;29;20046;-92
2022/10/26 10:51:50;;;;;;;;;;;18.00;99.90;;;;;;4882276;29;20420;-91
2022/10/26 10:58:24;;;;;;;9.70;3.55;;;17.90;99.90;;;;;;5452635;23;20076;-88
2022/10/26 11:01:52;;;;;;;8.80;3.35;;;18.00;99.90;;;;;;4925987;29;20058;-87
2022/10/26 11:05:08;;;;;;;8.93;3.45;;;17.50;99.90;;;;;;4944434;29;20055;-87
2022/10/26 11:08:06;;;;;;;12.45;3.60;;;18.00;99.90;;;;;;4920213;29;20480;-92
2022/10/26 11:11:24;;;;;;;9.40;3.40;;;18.20;99.90;;;;;;4932040;29;20067;-91
2022/10/26 11:14:30;;;;;;;11.73;3.63;;;18.40;99.90;;;;;;4937798;29;20113;-88
2022/10/26 11:27:48;;;;;;;10.55;3.67;;;18.60;99.90;;;;;;4954976;29;20478;-88
2022/10/26 11:30:27;;;;;;;11.38;3.72;;;18.90;99.90;;;;;;4937561;29;20414;-89
2022/10/26 11:40:02;;;;;;;11.38;3.80;;;18.60;99.90;;;;;;4901457;29;20125;-89
2022/10/26 11:42:50;;;;;;;11.45;3.30;;;18.80;99.90;;;;;;4858766;29;20054;-90
2022/10/26 11:45:34;;;;;;;11.00;3.75;;;19.70;99.90;;;;;;4858283;29;20197;-90
2022/10/26 11:48:13;;;;;;;11.00;3.60;;;19.90;99.90;;;;;;4960936;23;20048;-89
2022/10/26 11:50:43;;;;;;;11.15;3.50;;;19.20;99.90;;;;;;4936920;29;20055;-90
2022/10/26 11:53:16;;;;;;;10.05;3.28;;;19.20;99.90;;;;;;4954742;29;20043;-90
2022/10/26 11:55:46;;;;;;;11.10;3.33;;;19.40;99.90;;;;;;4938144;29;20058;-90
2022/10/26 11:58:12;;;;;;;9.55;3.28;;;19.40;99.90;;;;;;4938220;29;20427;-89
2022/10/26 12:00:50;;;;;;;11.55;3.28;;;19.60;99.90;;;;;;4930189;29;20043;-89
2022/10/26 12:03:20;;;;;;;11.50;3.38;;;20.30;99.90;;;;;;4926181;29;20080;-91
2022/10/26 12:05:50;;;;;;;10.38;2.85;;;19.50;99.90;;;;;;4922042;29;20123;-88
2022/10/26 12:09:20;;;;;;;10.15;2.90;;;19.60;99.90;;;;;;4920069;29;20051;-94
2022/10/26 12:12:22;;;;;;;10.48;3.85;;;19.60;99.90;;;;;;4860932;29;20049;-92
2022/10/26 12:15:50;;;;;;;9.68;3.22;;;19.50;99.90;;;;;;4867025;29;20493;-90
2022/10/26 12:18:40;;;;;;;11.02;3.20;;;19.80;99.90;;;;;;4846839;29;20045;-91
2022/10/26 12:21:08;;;;;;;9.75;3.13;;;19.90;99.90;;;;;;4856511;29;20086;-90
2022/10/26 12:24:21;;;;;;;9.38;3.20;;;20.00;99.90;;;;;;4851537;29;20053;-89
2022/10/26 12:26:57;;;;;;;9.77;3.03;;;20.00;99.90;;;;;;4833596;29;20476;-89
2022/10/26 12:29:30;;;;;;;10.43;3.55;;;20.00;99.90;;;;;;4839295;29;20564;-89
2022/10/26 12:31:56;;;;;;;10.98;3.58;;;19.70;99.90;;;;;;4897066;29;20062;-89
2022/10/26 12:35:01;;;;;;;10.50;3.80;;;19.40;99.90;;;;;;4947220;29;20126;-90
2022/10/26 12:37:52;;;;;;;11.13;3.40;;;19.10;99.90;;;;;;4928205;29;20059;-90
2022/10/26 12:40:38;;;;;;;8.90;3.30;;;19.60;99.90;;;;;;4924073;29;20066;-92
2022/10/26 12:43:16;;;;;;;11.70;3.65;;;19.00;99.90;;;;;;4928140;29;20099;-89
2022/10/26 12:45:42;;;;;;;10.18;3.70;;;19.00;99.90;;;;;;4943253;29;20055;-91
2022/10/26 12:51:42;;;;;;;12.30;3.55;;;19.30;99.90;;;;;;4926875;29;20051;-90
2022/10/26 12:58:06;;;;;;;11.65;3.72;;;19.70;99.90;;;;;;4949228;23;20048;-90
2022/10/26 13:00:36;;;;;;;12.70;3.60;;;19.70;99.90;;;;;;4913390;29;20099;-92
2022/10/26 13:03:33;;;;;;;12.77;3.67;;;19.80;99.90;;;;;;4927697;29;20043;-92
2022/10/26 13:06:10;;;;;;;10.70;3.60;;;19.90;99.90;;;;;;4939045;29;20102;-92
2022/10/26 13:08:44;;;;;;;12.52;3.50;;;19.90;99.90;;;;;;4936834;29;20047;-90
2022/10/26 13:11:18;;;;;;;13.65;3.95;;;19.80;99.90;;;;;;4948185;29;20047;-92
2022/10/26 13:13:51;;;;;;;10.35;3.75;;;19.80;99.90;;;;;;4953473;29;20054;-91
2022/10/26 13:16:20;;;;;;;10.95;3.60;;;20.20;99.90;;;;;;4936486;29;20110;-91
2022/10/26 13:18:49;;;;;;;12.65;3.67;;;20.40;99.90;;;;;;4938185;29;20047;-91
2022/10/26 13:21:20;;;;;;;10.38;3.88;;;19.90;99.90;;;;;;4927930;29;20503;-89
2022/10/26 13:24:00;;;;;;;9.80;3.95;;;19.80;99.90;;;;;;4953857;29;20447;-90
2022/10/26 13:26:33;;;;;;;10.38;4.00;;;19.70;99.90;;;;;;4953937;29;20059;-91
2022/10/26 13:29:43;;;;;;;13.45;4.22;;;19.70;99.90;;;;;;4931937;23;20111;-89
2022/10/26 13:32:21;;;;;;;12.23;4.00;;;19.40;99.90;;;;;;4918147;29;20051;-89
2022/10/26 13:34:58;;;;;;;10.65;4.20;;;19.70;99.90;;;;;;4937796;29;20094;-91
2022/10/26 13:38:05;;;;;;;13.15;4.05;;;19.70;99.90;;;;;;4922058;29;20488;-92
2022/10/26 13:44:35;;;;;;;11.32;4.40;;;19.00;99.90;;;;;;4938251;29;20511;-93
2022/10/26 13:59:25;;;;;;;10.80;4.22;;;18.80;99.90;;;;;;4934766;29;20047;-88
2022/10/26 14:02:29;;;;;;;12.20;4.82;;;18.90;99.90;;;;;;4935967;29;20055;-88
2022/10/26 14:05:03;;;;;;;12.10;4.50;;;18.90;99.90;;;;;;4878808;29;20068;-88
2022/10/26 14:07:36;;;;;;;11.45;4.50;;;18.90;99.90;;;;;;4927955;29;20050;-88
2022/10/26 14:10:03;;;;;;;11.63;4.80;;;18.90;99.90;;;;;;4921345;29;20084;-88
2022/10/26 14:12:29;;;;;;;13.10;4.93;;;18.90;99.90;;;;;;4910111;29;20049;-89
2022/10/26 14:15:08;;;;;;;11.40;4.57;;;18.70;99.90;;;;;;4929658;29;20070;-89
2022/10/26 14:17:34;;;;;;;10.88;4.75;;;19.00;99.90;;;;;;4917405;29;20047;-89
2022/10/26 14:20:02;;;;;;;13.90;5.20;;;19.00;99.90;;;;;;4917194;29;20122;-90
2022/10/26 14:22:28;;;;;;;12.13;4.63;;;19.00;99.90;;;;;;4918618;29;20048;-89
2022/10/26 14:24:57;;;;;;;11.50;4.72;;;18.90;99.90;;;;;;5151168;23;20007;-88
2022/10/26 14:27:25;;;;;;;13.82;5.32;;;19.00;99.90;;;;;;4930210;29;20051;-89
2022/10/26 14:30:02;;;;;;;10.75;4.70;;;19.00;99.90;;;;;;4948154;29;20046;-88
2022/10/26 14:32:40;;;;;;;11.50;4.90;;;19.30;99.90;;;;;;5162059;23;20139;-89
2022/10/26 14:35:36;;;;;;;15.30;5.00;;;19.10;99.90;;;;;;4936714;29;20138;-87
2022/10/26 14:38:06;;;;;;;11.55;4.70;;;18.90;99.90;;;;;;4919038;29;20066;-87
2022/10/26 14:40:41;;;;;;;14.15;5.35;;;18.90;99.90;;;;;;4912674;29;20462;-87
2022/10/26 14:43:20;;;;;;;11.77;5.18;;;19.20;99.90;;;;;;4917020;29;20127;-87
2022/10/26 14:45:52;;;;;;;11.45;4.78;;;18.90;99.90;;;;;;4935925;29;20115;-87
2022/10/26 14:48:32;;;;;;;13.32;4.82;;;18.90;99.90;;;;;;4936444;29;20048;-87
2022/10/26 14:51:07;;;;;;;12.50;5.22;;;19.30;99.90;;;;;;4919665;29;20075;-87
2022/10/26 14:53:40;;;;;;;13.77;4.60;;;18.90;99.90;;;;;;4936391;29;20048;-88
2022/10/26 14:56:20;;;;;;;14.48;5.30;;;18.80;99.90;;;;;;4918593;29;20428;-87
2022/10/26 14:59:35;;;;;;;13.82;4.88;;;18.60;99.90;;;;;;4917551;29;20095;-88
2022/10/26 15:05:32;;;;;;;14.00;5.80;;;18.50;99.90;;;;;;4917186;29;20048;-88
2022/10/26 15:11:18;;;;;;;11.50;5.18;;;18.90;99.90;;;;;;4923293;29;20195;-88
2022/10/26 15:13:54;;;;;;;12.50;5.47;;;18.70;99.90;;;;;;4923694;29;20135;-87
2022/10/26 15:16:39;;;;;;;10.93;5.18;;;18.20;99.90;;;;;;4928307;29;20048;-87
2022/10/26 15:19:10;;;;;;;10.60;4.80;;;18.10;99.90;;;;;;4918496;29;20048;-88
2022/10/26 15:21:46;;;;;;;11.70;5.35;;;18.00;99.90;;;;;;4914782;29;20366;-87
2022/10/26 15:27:46;;;;;;;11.57;4.70;;;17.80;99.90;;;;;;4937423;29;20046;-88
2022/10/26 15:30:23;;;;;;;13.73;5.25;;;17.70;99.90;;;;;;4918414;29;20052;-91
2022/10/26 15:32:49;;;;;;;10.73;5.40;;;17.60;99.90;;;;;;4912160;29;20496;-89
2022/10/26 15:57:42;;;;;;;16.25;6.03;;;16.50;99.90;;;;;;4937517;28;20407;-87
2022/10/26 16:00:31;;;;;;;13.07;5.55;;;17.50;99.90;;;;;;4942234;29;20135;-86
2022/10/26 16:02:57;;;;;;;14.85;5.82;;;16.80;99.90;;;;;;4934548;29;20467;-86
2022/10/26 16:05:35;;;;;;;14.48;6.00;;;16.70;99.90;;;;;;4934622;29;20160;-85
2022/10/26 16:11:44;;;;;;;13.40;6.22;;;16.60;99.90;;;;;;4942823;29;20479;-86
2022/10/26 16:14:15;;;;;;;11.15;6.10;;;16.50;99.90;;;;;;4923776;29;20121;-85
2022/10/26 16:25:43;;;;;;;11.02;5.50;;;16.50;99.90;;;;;;5409180;23;20130;-86
2022/10/26 16:28:34;;;;;;;13.57;5.80;;;17.60;99.90;;;;;;4932524;29;20043;-85
2022/10/26 16:31:01;;;;;;;13.20;5.95;;;16.50;99.90;;;;;;4933516;29;20039;-86
2022/10/26 16:33:34;;;;;;;12.50;6.35;;;16.40;99.90;;;;;;4934409;29;20079;-87
2022/10/26 16:36:15;;;;;;;12.13;6.22;;;17.60;99.90;;;;;;4932450;29;20048;-85
2022/10/26 16:38:41;;;;;;;14.95;6.43;;;16.30;99.90;;;;;;4934949;29;20031;-86
2022/10/26 16:41:10;;;;;;;13.00;6.30;;;16.70;99.90;;;;;;4935912;29;20051;-85
2022/10/26 16:43:41;;;;;;;12.35;6.20;;;16.10;99.90;;;;;;4935702;29;20126;-86
2022/10/26 16:46:15;;;;;;;11.88;6.20;;;16.10;99.90;;;;;;4934518;29;20058;-86
2022/10/26 16:48:42;;;;;;;11.95;6.80;;;16.00;99.90;;;;;;4932386;29;20039;-85
2022/10/26 16:51:16;;;;;;;13.05;6.78;;;16.20;99.90;;;;;;4932414;29;20075;-86
2022/10/26 16:53:42;;;;;;;13.95;6.97;;;16.60;99.90;;;;;;4931864;29;20048;-86
2022/10/26 16:56:13;;;;;;;12.80;7.00;;;16.50;99.90;;;;;;4933211;29;20047;-85
2022/10/26 16:58:39;;;;;;;15.63;6.85;;;16.10;99.90;;;;;;4930993;29;20056;-85
2022/10/26 17:01:07;;;;;;;13.43;7.10;;;16.50;99.90;;;;;;4931203;29;20047;-85